createdAt,value
2022-12-28T00:01:17.096Z,1.77
2022-12-28T00:04:19.438Z,1.63
2022-12-28T00:07:21.689Z,1.56
2022-12-28T00:11:07.517Z,1.47
2022-12-28T00:13:46.360Z,1.42
2022-12-28T00:16:48.917Z,1.26
2022-12-28T00:19:51.396Z,1.28
2022-12-28T00:22:55.595Z,1.34
2022-12-28T00:26:06.418Z,1.21
2022-12-28T00:29:10.093Z,1.23
2022-12-28T00:32:12.943Z,1.08
2022-12-28T00:35:15.379Z,1.02
2022-12-28T00:38:17.765Z,0.93
2022-12-28T00:41:20.147Z,0.84
2022-12-28T00:44:22.422Z,0.85
2022-12-28T00:47:24.732Z,0.67
2022-12-28T00:50:27.181Z,0.54
2022-12-28T00:53:29.533Z,0.41
2022-12-28T00:56:32.050Z,0.33
2022-12-28T00:59:34.480Z,0.47
2022-12-28T01:02:36.991Z,0.45
2022-12-28T01:05:40.183Z,0.51
2022-12-28T01:08:44.584Z,0.40
2022-12-28T01:11:46.951Z,0.47
2022-12-28T01:14:50.436Z,0.34
2022-12-28T01:17:52.783Z,0.63
2022-12-28T01:20:55.150Z,0.53
2022-12-28T01:27:35.071Z,0.62
2022-12-28T01:30:38.870Z,0.72
2022-12-28T01:33:42.074Z,0.67
2022-12-28T01:36:44.432Z,0.73
2022-12-28T01:39:46.764Z,0.62
2022-12-28T01:42:50.354Z,0.70
2022-12-28T01:45:53.602Z,0.65
2022-12-28T01:49:00.946Z,0.59
2022-12-28T01:52:08.368Z,0.62
2022-12-28T01:55:14.982Z,0.57
2022-12-28T01:58:25.364Z,0.48
2022-12-28T02:01:28.492Z,0.50
2022-12-28T02:04:31.094Z,0.31
2022-12-28T02:07:40.904Z,0.06
2022-12-28T02:10:45.769Z,0.20
2022-12-28T02:13:52.209Z,0.33
2022-12-28T02:16:55.756Z,0.27
2022-12-28T02:19:58.148Z,0.31
2022-12-28T02:23:38.470Z,0.56
2022-12-28T02:26:46.777Z,0.55
2022-12-28T02:30:01.067Z,0.61
2022-12-28T02:33:19.510Z,0.45
2022-12-28T02:36:26.221Z,0.28
2022-12-28T02:39:51.229Z,0.53
2022-12-28T02:42:55.067Z,0.46
2022-12-28T02:46:16.025Z,0.40
2022-12-28T02:49:42.214Z,0.53
2022-12-28T02:53:22.932Z,0.49
2022-12-28T02:56:36.757Z,0.34
2022-12-28T02:59:45.040Z,0.54
2022-12-28T03:03:09.101Z,0.78
2022-12-28T03:06:38.488Z,0.91
2022-12-28T03:09:45.659Z,0.97
2022-12-28T03:13:28.161Z,1.10
2022-12-28T03:16:54.017Z,1.06
2022-12-28T03:20:21.701Z,1.06
2022-12-28T03:23:43.509Z,0.89
2022-12-28T03:27:08.244Z,0.92
2022-12-28T03:30:40.473Z,1.03
2022-12-28T03:33:49.609Z,0.81
2022-12-28T03:37:10.738Z,0.80
2022-12-28T03:40:37.195Z,0.81
2022-12-28T03:43:47.151Z,0.78
2022-12-28T03:47:01.892Z,0.82
2022-12-28T03:50:05.731Z,1.10
2022-12-28T03:53:09.568Z,1.16
2022-12-28T03:56:15.022Z,0.68
2022-12-28T03:59:19.694Z,0.47
2022-12-28T04:02:26.501Z,0.86
2022-12-28T04:05:29.132Z,0.84
2022-12-28T04:08:32.930Z,0.74
2022-12-28T04:11:35.661Z,0.54
2022-12-28T04:14:38.141Z,0.38
2022-12-28T04:17:40.492Z,0.29
2022-12-28T04:20:42.809Z,0.47
2022-12-28T04:23:45.120Z,0.18
2022-12-28T04:26:52.509Z,0.29
2022-12-28T04:29:55.534Z,0.35
2022-12-28T04:32:59.569Z,-0.25
2022-12-28T04:36:12.155Z,0.17
2022-12-28T04:39:14.773Z,0.06
2022-12-28T04:42:17.149Z,0.09
2022-12-28T04:45:22.203Z,0.13
2022-12-28T04:48:25.225Z,0.26
2022-12-28T04:51:28.995Z,0.32
2022-12-28T04:54:31.462Z,0.33
2022-12-28T04:57:33.864Z,0.08
2022-12-28T05:00:36.294Z,0.25
2022-12-28T05:03:39.923Z,0.08
2022-12-28T05:06:42.224Z,-0.02
2022-12-28T05:09:44.487Z,-0.22
2022-12-28T05:12:46.854Z,-0.02
2022-12-28T05:15:49.235Z,0.01
2022-12-28T05:18:51.783Z,-0.05
2022-12-28T05:21:54.366Z,0.04
2022-12-28T05:24:56.710Z,0.09
2022-12-28T05:27:59.047Z,0.17
2022-12-28T05:31:07.552Z,0.10
2022-12-28T05:34:09.998Z,0.21
2022-12-28T05:37:15.706Z,0.17
2022-12-28T05:40:22.523Z,0.34
2022-12-28T05:43:24.854Z,0.28
2022-12-28T05:46:31.805Z,0.36
2022-12-28T05:49:34.163Z,0.30
2022-12-28T05:52:38.578Z,0.25
2022-12-28T05:55:41.199Z,0.22
2022-12-28T05:58:44.616Z,0.27
2022-12-28T06:01:47.045Z,0.38
2022-12-28T06:04:49.429Z,0.37
2022-12-28T06:07:53.544Z,0.30
2022-12-28T06:11:00.752Z,0.31
2022-12-28T06:14:06.047Z,0.26
2022-12-28T06:17:08.519Z,0.40
2022-12-28T06:20:11.387Z,0.50
2022-12-28T06:23:13.778Z,0.47
2022-12-28T06:26:18.703Z,0.46
2022-12-28T06:29:21.071Z,0.55
2022-12-28T06:32:23.416Z,0.55
2022-12-28T06:35:25.769Z,0.62
2022-12-28T06:38:31.293Z,0.65
2022-12-28T06:41:34.242Z,0.59
2022-12-28T06:44:42.403Z,0.63
2022-12-28T06:47:46.783Z,0.68
2022-12-28T06:51:06.113Z,0.73
2022-12-28T06:54:09.534Z,0.70
2022-12-28T06:57:11.927Z,0.75
2022-12-28T07:00:14.697Z,0.84
2022-12-28T07:03:17.492Z,0.71
2022-12-28T07:06:21.513Z,0.77
2022-12-28T07:09:23.936Z,0.70
2022-12-28T07:12:26.309Z,0.80
2022-12-28T07:15:28.881Z,0.79
2022-12-28T07:18:31.671Z,0.74
2022-12-28T07:21:36.457Z,0.65
2022-12-28T07:24:39.602Z,0.65
2022-12-28T07:27:42.059Z,0.67
2022-12-28T07:30:44.344Z,0.73
2022-12-28T07:33:48.134Z,0.72
2022-12-28T07:36:50.772Z,0.69
2022-12-28T07:39:53.232Z,0.70
2022-12-28T07:42:55.524Z,0.73
2022-12-28T07:46:02.433Z,0.73
2022-12-28T07:49:05.669Z,0.59
2022-12-28T07:52:08.485Z,0.64
2022-12-28T07:55:11.009Z,0.70
2022-12-28T07:58:13.381Z,0.89
2022-12-28T08:01:17.484Z,0.97
2022-12-28T08:04:20.132Z,0.65
2022-12-28T08:07:22.489Z,0.82
2022-12-28T08:10:25.163Z,0.88
2022-12-28T08:13:27.664Z,0.94
2022-12-28T08:16:42.310Z,0.95
2022-12-28T08:19:44.739Z,0.85
2022-12-28T08:22:47.306Z,0.95
2022-12-28T08:25:49.791Z,0.93
2022-12-28T08:28:55.663Z,0.93
2022-12-28T08:31:59.060Z,0.66
2022-12-28T08:35:01.748Z,0.91
2022-12-28T08:38:04.175Z,1.03
2022-12-28T08:41:08.718Z,1.11
2022-12-28T08:44:11.660Z,1.04
2022-12-28T08:47:14.070Z,1.07
2022-12-28T08:50:19.950Z,1.13
2022-12-28T08:53:26.010Z,1.05
2022-12-28T08:56:30.850Z,0.97
2022-12-28T08:59:33.428Z,0.95
2022-12-28T09:02:36.086Z,1.06
2022-12-28T09:05:39.974Z,1.02
2022-12-28T09:08:56.864Z,0.88
2022-12-28T09:12:07.459Z,1.14
2022-12-28T09:15:10.190Z,1.21
2022-12-28T09:18:12.494Z,1.22
2022-12-28T09:21:20.029Z,1.29
2022-12-28T09:24:23.387Z,1.33
2022-12-28T09:27:26.100Z,1.33
2022-12-28T09:30:28.817Z,1.30
2022-12-28T09:34:24.820Z,1.48
2022-12-28T09:37:12.366Z,1.45
2022-12-28T09:40:14.812Z,1.43
2022-12-28T09:43:17.495Z,1.61
2022-12-28T09:46:21.995Z,1.66
2022-12-28T09:49:29.087Z,1.55
2022-12-28T09:52:38.704Z,1.63
2022-12-28T09:55:43.574Z,1.85
2022-12-28T09:58:48.066Z,1.76
2022-12-28T10:01:56.831Z,2.02
2022-12-28T10:04:59.340Z,2.04
2022-12-28T10:08:02.146Z,2.09
2022-12-28T10:11:05.883Z,2.08
2022-12-28T10:14:20.505Z,2.23
2022-12-28T10:17:31.809Z,2.32
2022-12-28T10:20:34.374Z,2.13
2022-12-28T10:23:50.205Z,2.15
2022-12-28T10:27:03.177Z,2.18
2022-12-28T10:30:11.289Z,2.22
2022-12-28T10:33:19.302Z,2.35
2022-12-28T10:36:23.663Z,2.41
2022-12-28T10:39:32.040Z,2.40
2022-12-28T10:42:40.404Z,2.33
2022-12-28T10:45:48.685Z,2.52
2022-12-28T10:48:54.406Z,2.50
2022-12-28T10:52:01.546Z,2.49
2022-12-28T10:55:07.919Z,2.47
2022-12-28T10:58:30.681Z,2.55
2022-12-28T11:01:34.512Z,2.42
2022-12-28T11:04:37.030Z,2.34
2022-12-28T11:07:41.780Z,2.45
2022-12-28T11:10:44.174Z,2.30
2022-12-28T11:13:51.103Z,2.59
2022-12-28T11:16:53.620Z,2.66
2022-12-28T11:20:04.952Z,2.57
2022-12-28T11:23:08.143Z,2.57
2022-12-28T11:26:12.590Z,2.69
2022-12-28T11:29:17.119Z,2.88
2022-12-28T11:32:25.351Z,2.85
2022-12-28T11:35:31.081Z,2.94
2022-12-28T11:38:40.484Z,2.82
2022-12-28T11:41:56.087Z,2.96
2022-12-28T11:45:16.645Z,3.03
2022-12-28T11:48:43.906Z,3.14
2022-12-28T11:51:46.458Z,3.07
2022-12-28T11:54:59.700Z,3.12
2022-12-28T11:58:30.965Z,3.06
2022-12-28T12:01:34.992Z,3.27
2022-12-28T12:04:38.603Z,3.33
2022-12-28T12:07:50.746Z,3.37
2022-12-28T12:11:26.904Z,3.30
2022-12-28T12:14:40.966Z,3.27
2022-12-28T12:17:53.909Z,3.31
2022-12-28T12:21:15.624Z,3.20
2022-12-28T12:24:27.128Z,3.26
2022-12-28T12:27:37.468Z,3.24
2022-12-28T12:30:43.345Z,3.24
2022-12-28T12:33:48.399Z,3.20
2022-12-28T12:36:53.531Z,3.14
2022-12-28T12:40:15.250Z,3.20
2022-12-28T12:43:36.214Z,3.21
2022-12-28T12:47:08.985Z,3.18
2022-12-28T12:50:14.080Z,3.20
2022-12-28T12:53:19.048Z,3.22
2022-12-28T12:56:45.515Z,3.11
2022-12-28T13:00:06.318Z,3.19
2022-12-28T13:03:56.639Z,3.14
2022-12-28T13:07:04.309Z,3.29
2022-12-28T13:10:10.773Z,3.30
2022-12-28T13:13:26.550Z,3.20
2022-12-28T13:16:31.171Z,3.32
2022-12-28T13:19:33.684Z,3.17
2022-12-28T13:22:36.139Z,3.09
2022-12-28T13:25:46.009Z,3.10
2022-12-28T13:28:57.029Z,3.08
2022-12-28T13:31:59.356Z,3.07
2022-12-28T13:35:01.774Z,3.18
2022-12-28T13:38:09.956Z,3.22
2022-12-28T13:41:26.337Z,3.30
2022-12-28T13:44:34.521Z,3.28
2022-12-28T13:47:48.183Z,3.21
2022-12-28T13:50:52.623Z,3.19
2022-12-28T13:53:59.714Z,3.22
2022-12-28T13:57:20.941Z,3.30
2022-12-28T14:00:24.975Z,3.27
2022-12-28T14:03:28.471Z,3.28
2022-12-28T14:06:31.113Z,3.14
2022-12-28T14:09:34.036Z,3.28
2022-12-28T14:12:36.783Z,3.22
2022-12-28T14:15:41.495Z,3.23
2022-12-28T14:18:45.603Z,3.19
2022-12-28T14:21:48.386Z,3.22
2022-12-28T14:25:05.001Z,3.26
2022-12-28T14:28:08.087Z,3.24
2022-12-28T14:31:14.729Z,3.16
2022-12-28T14:34:25.947Z,3.26
2022-12-28T14:37:39.644Z,3.16
2022-12-28T14:40:42.159Z,3.01
2022-12-28T14:43:45.399Z,3.14
2022-12-28T14:46:52.565Z,3.12
2022-12-28T14:49:59.264Z,3.24
2022-12-28T14:53:08.411Z,3.05
2022-12-28T14:56:13.708Z,3.36
2022-12-28T14:59:22.341Z,3.22
2022-12-28T15:02:34.186Z,3.32
2022-12-28T15:05:39.457Z,3.25
2022-12-28T15:08:41.722Z,3.21
2022-12-28T15:11:46.143Z,3.15
2022-12-28T15:14:50.037Z,3.07
2022-12-28T15:17:52.499Z,3.16
2022-12-28T15:20:55.950Z,3.08
2022-12-28T15:23:58.584Z,3.41
2022-12-28T15:27:01.285Z,3.31
2022-12-28T15:30:06.385Z,3.29
2022-12-28T15:33:10.368Z,3.32
2022-12-28T15:36:20.691Z,3.33
2022-12-28T15:39:23.135Z,3.37
2022-12-28T15:42:25.653Z,3.35
2022-12-28T15:45:28.103Z,3.42
2022-12-28T15:48:33.284Z,3.32
2022-12-28T15:51:35.626Z,3.43
2022-12-28T15:54:40.355Z,3.34
2022-12-28T15:57:46.246Z,3.37
2022-12-28T16:00:48.569Z,3.53
2022-12-28T16:03:55.718Z,3.63
2022-12-28T16:06:58.102Z,3.51
2022-12-28T16:10:00.629Z,3.55
2022-12-28T16:13:03.162Z,3.33
2022-12-28T16:16:07.071Z,3.40
2022-12-28T16:19:11.383Z,3.38
2022-12-28T16:22:14.558Z,3.50
2022-12-28T16:25:17.020Z,3.41
2022-12-28T16:28:19.392Z,3.49
2022-12-28T16:31:25.985Z,3.56
2022-12-28T16:34:28.852Z,3.62
2022-12-28T16:37:31.181Z,3.59
2022-12-28T16:40:35.248Z,3.54
2022-12-28T16:43:37.541Z,3.48
2022-12-28T16:46:39.938Z,3.61
2022-12-28T16:49:42.315Z,3.79
2022-12-28T16:52:44.696Z,3.74
2022-12-28T16:55:47.273Z,3.68
2022-12-28T16:58:49.987Z,3.76
2022-12-28T17:01:53.540Z,3.72
2022-12-28T17:04:56.043Z,3.79
2022-12-28T17:07:58.486Z,3.87
2022-12-28T17:11:00.833Z,3.87
2022-12-28T17:14:10.323Z,3.89
2022-12-28T17:17:12.740Z,4.08
2022-12-28T17:20:15.386Z,3.83
2022-12-28T17:23:18.131Z,4.00
2022-12-28T17:26:20.548Z,4.14
2022-12-28T17:29:22.989Z,3.97
2022-12-28T17:32:25.457Z,4.04
2022-12-28T17:35:28.018Z,4.26
2022-12-28T17:38:31.087Z,3.97
2022-12-28T17:41:33.600Z,3.97
2022-12-28T17:44:35.971Z,4.00
2022-12-28T17:47:38.427Z,4.14
2022-12-28T17:50:45.127Z,4.34
2022-12-28T17:53:47.543Z,4.10
2022-12-28T17:56:49.910Z,4.24
2022-12-28T17:59:52.233Z,4.21
2022-12-28T18:02:55.496Z,3.92
2022-12-28T18:05:58.063Z,3.89
2022-12-28T18:09:00.432Z,3.92
2022-12-28T18:12:02.800Z,3.96
2022-12-28T18:15:08.092Z,3.86
2022-12-28T18:18:10.479Z,4.14
2022-12-28T18:21:20.782Z,4.26
2022-12-28T18:24:24.742Z,4.24
2022-12-28T18:27:27.232Z,4.14
2022-12-28T18:30:29.755Z,4.17
2022-12-28T18:33:33.023Z,4.09
2022-12-28T18:36:35.545Z,4.04
2022-12-28T18:39:37.883Z,4.10
2022-12-28T18:42:40.318Z,4.16
2022-12-28T18:45:42.753Z,3.98
2022-12-28T18:48:45.330Z,4.09
2022-12-28T18:51:48.099Z,4.00
2022-12-28T18:54:50.480Z,4.01
2022-12-28T18:57:52.706Z,4.00
2022-12-28T19:00:56.393Z,4.14
2022-12-28T19:04:01.037Z,4.08
2022-12-28T19:07:03.837Z,4.27
2022-12-28T19:10:13.609Z,4.19
2022-12-28T19:13:16.143Z,4.27
2022-12-28T19:16:24.466Z,4.19
2022-12-28T19:19:31.146Z,4.13
2022-12-28T19:22:34.190Z,4.40
2022-12-28T19:25:36.728Z,4.19
2022-12-28T19:28:39.424Z,4.32
2022-12-28T19:31:42.183Z,4.30
2022-12-28T19:34:44.811Z,4.27
2022-12-28T19:37:48.337Z,4.35
2022-12-28T19:40:50.686Z,4.41
2022-12-28T19:43:53.273Z,4.34
2022-12-28T19:46:55.867Z,4.54
2022-12-28T19:49:58.283Z,4.31
2022-12-28T19:53:01.056Z,4.40
2022-12-28T19:56:08.961Z,4.27
2022-12-28T19:59:11.396Z,4.49
2022-12-28T20:02:13.872Z,4.49
2022-12-28T20:05:16.261Z,4.51
2022-12-28T20:08:18.654Z,4.48
2022-12-28T20:11:22.149Z,4.62
2022-12-28T20:14:25.273Z,4.61
2022-12-28T20:17:29.845Z,4.43
2022-12-28T20:20:45.822Z,4.32
2022-12-28T20:23:55.523Z,4.42
2022-12-28T20:27:01.504Z,4.49
2022-12-28T20:30:05.028Z,4.45
2022-12-28T20:33:07.449Z,4.42
2022-12-28T20:36:13.971Z,4.49
2022-12-28T20:39:16.317Z,4.59
2022-12-28T20:42:37.223Z,4.39
2022-12-28T20:45:39.563Z,4.31
2022-12-28T20:48:42.042Z,4.16
2022-12-28T20:51:46.991Z,4.30
2022-12-28T20:54:49.377Z,4.54
2022-12-28T20:57:53.518Z,4.51
2022-12-28T21:00:55.871Z,4.54
2022-12-28T21:03:58.194Z,4.51
2022-12-28T21:07:00.823Z,4.62
2022-12-28T21:10:03.398Z,4.64
2022-12-28T21:13:05.695Z,4.53
2022-12-28T21:16:08.612Z,4.52
2022-12-28T21:19:11.107Z,4.46
2022-12-28T21:22:13.592Z,4.59
2022-12-28T21:25:16.049Z,4.55
2022-12-28T21:28:18.461Z,4.69
2022-12-28T21:31:21.247Z,4.73
2022-12-28T21:34:27.873Z,4.91
2022-12-28T21:37:36.107Z,4.80
2022-12-28T21:40:38.430Z,4.78
2022-12-28T21:43:41.243Z,4.67
2022-12-28T21:46:44.621Z,4.74
2022-12-28T21:49:46.943Z,4.57
2022-12-28T21:52:49.285Z,4.69
2022-12-28T21:55:51.634Z,4.61
2022-12-28T21:58:54.233Z,4.87
2022-12-28T22:02:15.494Z,4.81
2022-12-28T22:05:36.609Z,4.84
2022-12-28T22:08:57.895Z,4.74
2022-12-28T22:12:19.069Z,4.43
2022-12-28T22:15:42.734Z,4.51
2022-12-28T22:19:01.313Z,4.75
2022-12-28T22:22:05.172Z,4.67
2022-12-28T22:25:08.243Z,4.56
2022-12-28T22:28:10.616Z,4.71
2022-12-28T22:31:12.923Z,4.78
2022-12-28T22:34:15.219Z,4.66
2022-12-28T22:37:17.917Z,4.88
2022-12-28T22:40:20.473Z,4.88
2022-12-28T22:43:22.919Z,4.82
2022-12-28T22:46:25.334Z,4.87
2022-12-28T22:49:27.898Z,4.90
2022-12-28T22:52:30.316Z,5.00
2022-12-28T22:55:32.669Z,4.85
2022-12-28T22:58:35.209Z,4.90
2022-12-28T23:01:37.692Z,4.87
2022-12-28T23:04:41.175Z,4.88
2022-12-28T23:07:43.426Z,4.94
2022-12-28T23:11:26.301Z,5.00
2022-12-28T23:14:47.283Z,4.88
2022-12-28T23:17:50.061Z,4.95
2022-12-28T23:21:10.984Z,4.97
2022-12-28T23:24:40.030Z,5.00
2022-12-28T23:27:43.800Z,5.19
2022-12-28T23:30:48.084Z,5.05
2022-12-28T23:33:50.472Z,5.03
2022-12-28T23:36:53.150Z,5.16
2022-12-28T23:39:55.510Z,5.01
2022-12-28T23:42:57.941Z,5.16
2022-12-28T23:46:05.115Z,5.04
2022-12-28T23:49:08.509Z,5.14
2022-12-28T23:52:10.946Z,5.00
2022-12-28T23:55:13.387Z,4.95
2022-12-28T23:58:15.703Z,4.94
